Time;durP1;ratioP1;P1;durP2;ratioP2;P2;SDS_P1;SDS_P2;PMS_P1;PMS_P2;Temp;Humidity;BMP_temperature;BMP_pressure;BME280_temperature;BME280_humidity;BME280_pressure;Samples;Min_cycle;Max_cycle;Signal;HPM_P1;HPM_P2
2022/06/27 00:01:39;;;;;;;11.10;6.68;;;17.80;99.90;;;;;;5053037;28;20036;-78
2022/06/27 00:04:05;;;;;;;11.63;6.78;;;17.80;99.90;;;;;;5052962;28;20111;-78
2022/06/27 00:06:31;;;;;;;10.63;6.30;;;17.90;99.90;;;;;;5061379;28;20041;-78
2022/06/27 00:08:57;;;;;;;12.07;6.80;;;17.80;99.90;;;;;;5063802;28;20071;-78
2022/06/27 00:11:23;;;;;;;11.82;7.57;;;17.80;99.90;;;;;;5052623;28;20426;-77
2022/06/27 00:13:49;;;;;;;12.82;7.63;;;17.80;99.90;;;;;;5032958;28;20037;-77
2022/06/27 00:16:14;;;;;;;12.40;8.07;;;17.80;99.90;;;;;;5051833;28;20156;-77
2022/06/27 00:18:40;;;;;;;12.55;8.02;;;17.80;99.90;;;;;;5032956;28;20057;-77
2022/06/27 00:21:06;;;;;;;13.82;8.13;;;17.80;99.90;;;;;;5051102;28;20548;-77
2022/06/27 00:23:32;;;;;;;13.80;8.13;;;17.80;99.90;;;;;;5052597;28;20515;-77
2022/06/27 00:25:57;;;;;;;13.77;8.73;;;17.80;99.90;;;;;;5051907;28;20097;-78
2022/06/27 00:28:23;;;;;;;12.68;7.57;;;17.80;99.90;;;;;;5069061;28;20086;-78
2022/06/27 00:30:49;;;;;;;12.43;7.40;;;17.70;99.90;;;;;;5046792;28;20075;-78
2022/06/27 00:33:15;;;;;;;12.38;7.97;;;17.80;99.90;;;;;;5038897;28;20032;-77
2022/06/27 00:35:40;;;;;;;12.20;8.18;;;17.70;99.90;;;;;;5034643;28;20044;-77
2022/06/27 00:38:06;;;;;;;11.93;7.63;;;17.70;99.90;;;;;;5019301;28;20158;-77
2022/06/27 00:40:32;;;;;;;14.02;7.75;;;17.70;99.90;;;;;;5037241;28;20234;-77
2022/06/27 00:42:58;;;;;;;12.77;7.40;;;17.60;99.90;;;;;;5032357;28;20033;-77
2022/06/27 00:45:24;;;;;;;12.35;7.10;;;17.60;99.90;;;;;;5031767;28;20514;-77
2022/06/27 00:47:50;;;;;;;13.40;7.20;;;17.60;99.90;;;;;;5038518;28;20040;-78
2022/06/27 00:50:16;;;;;;;11.85;6.85;;;17.50;99.90;;;;;;5022721;28;20099;-77
2022/06/27 00:52:42;;;;;;;11.93;7.30;;;17.50;99.90;;;;;;5018534;28;20045;-78
2022/06/27 00:55:09;;;;;;;11.20;6.32;;;17.50;99.90;;;;;;5039081;28;20037;-78
2022/06/27 00:57:35;;;;;;;11.77;6.53;;;17.50;99.90;;;;;;5031284;28;20116;-77
2022/06/27 01:00:01;;;;;;;11.45;6.70;;;17.40;99.90;;;;;;5032001;28;20128;-78
2022/06/27 01:02:27;;;;;;;16.08;7.40;;;17.50;99.90;;;;;;5048372;28;20075;-78
2022/06/27 01:04:53;;;;;;;12.25;7.05;;;17.50;99.90;;;;;;4999073;28;20551;-78
2022/06/27 01:07:19;;;;;;;15.40;6.93;;;17.50;99.90;;;;;;5031410;28;20123;-78
2022/06/27 01:09:44;;;;;;;11.40;6.68;;;17.50;99.90;;;;;;5015255;28;20048;-77
2022/06/27 01:12:11;;;;;;;11.20;6.47;;;17.50;99.90;;;;;;5031523;28;20047;-78
2022/06/27 01:14:36;;;;;;;11.82;6.88;;;17.50;99.90;;;;;;5031902;28;20061;-78
2022/06/27 01:17:03;;;;;;;11.48;6.85;;;17.50;99.90;;;;;;5047740;28;20120;-77
2022/06/27 01:19:29;;;;;;;12.43;6.85;;;17.50;99.90;;;;;;5015323;28;20072;-77
2022/06/27 01:21:56;;;;;;;12.30;6.82;;;17.50;99.90;;;;;;5014853;28;20112;-77
2022/06/27 01:24:24;;;;;;;12.38;7.03;;;17.50;99.90;;;;;;5015111;28;20601;-78
2022/06/27 01:26:50;;;;;;;11.63;6.82;;;17.50;99.90;;;;;;5041345;28;20048;-77
2022/06/27 01:29:17;;;;;;;13.23;6.90;;;17.50;99.90;;;;;;5055285;28;20384;-78
2022/06/27 01:31:43;;;;;;;12.30;6.90;;;17.50;99.90;;;;;;5067479;28;20048;-77
2022/06/27 01:34:10;;;;;;;12.20;7.60;;;17.50;99.90;;;;;;5051125;28;20044;-77
2022/06/27 01:36:41;;;;;;;11.85;7.10;;;17.40;99.90;;;;;;5017852;28;20394;-77
2022/06/27 01:39:09;;;;;;;11.60;7.40;;;17.40;99.90;;;;;;5035318;28;20491;-77
2022/06/27 01:41:35;;;;;;;11.82;7.93;;;17.40;99.90;;;;;;5067194;28;20071;-77
2022/06/27 01:44:02;;;;;;;12.20;7.18;;;17.40;99.90;;;;;;5051070;28;20075;-77
2022/06/27 01:46:48;;;;;;;12.57;7.43;;;17.40;99.90;;;;;;5049861;28;20040;-77
2022/06/27 01:49:16;;;;;;;13.13;7.20;;;17.40;99.90;;;;;;5067449;28;20109;-77
2022/06/27 01:51:43;;;;;;;11.60;7.18;;;17.40;99.90;;;;;;5034571;28;20362;-77
2022/06/27 01:54:10;;;;;;;14.13;7.47;;;17.40;99.90;;;;;;5031173;28;20052;-77
2022/06/27 01:56:37;;;;;;;10.77;6.90;;;17.50;99.90;;;;;;5046988;28;20560;-77
2022/06/27 01:59:02;;;;;;;13.40;7.82;;;17.50;99.90;;;;;;5030796;28;20037;-77
2022/06/27 02:01:29;;;;;;;13.02;7.50;;;17.50;99.90;;;;;;5030526;28;20112;-76
2022/06/27 02:03:57;;;;;;;12.18;7.85;;;17.40;99.90;;;;;;5014221;28;20045;-76
2022/06/27 02:06:23;;;;;;;13.48;7.25;;;17.50;99.90;;;;;;5046724;28;20059;-76
2022/06/27 02:08:53;;;;;;;11.60;7.72;;;17.50;99.90;;;;;;5014976;28;20037;-76
2022/06/27 02:11:20;;;;;;;13.73;8.35;;;17.50;99.90;;;;;;5030687;28;20051;-76
2022/06/27 02:13:46;;;;;;;11.20;7.32;;;17.40;99.90;;;;;;5014576;28;20119;-76
2022/06/27 02:16:15;;;;;;;12.85;7.88;;;17.40;99.90;;;;;;5030143;28;20052;-76
2022/06/27 02:18:42;;;;;;;11.88;7.88;;;17.40;99.90;;;;;;5047381;28;20083;-76
2022/06/27 02:21:10;;;;;;;11.18;7.28;;;17.40;99.90;;;;;;5046987;28;20041;-76
2022/06/27 02:23:36;;;;;;;11.52;7.35;;;17.40;99.90;;;;;;5014508;28;20371;-76
2022/06/27 02:26:03;;;;;;;12.32;7.22;;;17.40;99.90;;;;;;5030285;28;20051;-76
2022/06/27 02:28:29;;;;;;;12.95;8.48;;;17.40;99.90;;;;;;5033894;28;20552;-77
2022/06/27 02:30:55;;;;;;;14.98;8.55;;;17.40;99.90;;;;;;5066767;28;20056;-77
2022/06/27 02:33:22;;;;;;;14.27;8.27;;;17.40;99.90;;;;;;5050541;28;20044;-77
2022/06/27 02:35:51;;;;;;;12.90;8.63;;;17.30;99.90;;;;;;5066712;28;20132;-77
2022/06/27 02:38:18;;;;;;;13.70;8.00;;;17.30;99.90;;;;;;5066972;28;20576;-77
2022/06/27 02:40:46;;;;;;;14.43;8.63;;;17.20;99.90;;;;;;5066937;28;20531;-77
2022/06/27 02:43:14;;;;;;;12.95;7.72;;;17.10;99.90;;;;;;5067002;28;20037;-77
2022/06/27 02:45:40;;;;;;;12.80;8.23;;;17.10;99.90;;;;;;5057685;28;20041;-77
2022/06/27 02:48:07;;;;;;;13.40;8.20;;;17.10;99.90;;;;;;5036778;28;20422;-77
2022/06/27 02:50:37;;;;;;;13.35;8.32;;;17.10;99.90;;;;;;5030289;28;20127;-77
2022/06/27 02:53:09;;;;;;;14.70;8.25;;;17.00;99.90;;;;;;5046800;28;20079;-77
2022/06/27 02:55:39;;;;;;;13.43;8.00;;;17.00;99.90;;;;;;5064167;28;20051;-77
2022/06/27 02:58:27;;;;;;;11.98;7.97;;;17.00;99.90;;;;;;5069177;28;20040;-77
2022/06/27 03:00:54;;;;;;;11.98;8.23;;;17.00;99.90;;;;;;5054037;28;20249;-77
2022/06/27 03:03:21;;;;;;;11.73;8.23;;;16.90;99.90;;;;;;5054083;28;20094;-78
2022/06/27 03:06:01;;;;;;;12.27;8.20;;;16.90;99.90;;;;;;5037153;28;20052;-77
2022/06/27 03:08:39;;;;;;;13.90;8.35;;;16.90;99.90;;;;;;5071002;28;20511;-78
2022/06/27 03:11:06;;;;;;;12.27;8.00;;;16.90;99.90;;;;;;5037391;28;20115;-78
2022/06/27 03:13:31;;;;;;;13.65;8.55;;;16.90;99.90;;;;;;5054240;28;20402;-77
2022/06/27 03:15:58;;;;;;;15.32;8.52;;;16.90;99.90;;;;;;5036856;28;20052;-77
2022/06/27 03:18:23;;;;;;;13.40;8.60;;;16.90;99.90;;;;;;5053309;28;20064;-78
2022/06/27 03:20:49;;;;;;;11.75;8.05;;;16.90;99.90;;;;;;5017278;28;20037;-78
2022/06/27 03:23:16;;;;;;;14.07;8.70;;;16.90;99.90;;;;;;5000856;28;20396;-77
2022/06/27 03:25:42;;;;;;;14.73;9.70;;;16.80;99.90;;;;;;5051444;28;20522;-78
2022/06/27 03:28:08;;;;;;;15.45;8.98;;;16.90;99.90;;;;;;5040296;28;20048;-77
2022/06/27 03:30:33;;;;;;;12.85;8.50;;;16.90;99.90;;;;;;5053621;28;20415;-77
2022/06/27 03:32:59;;;;;;;13.48;9.20;;;16.90;99.90;;;;;;5070282;28;20052;-77
2022/06/27 03:35:25;;;;;;;14.10;9.23;;;16.90;99.90;;;;;;5070093;28;20403;-77
2022/06/27 03:37:51;;;;;;;13.05;8.57;;;16.90;99.90;;;;;;5052911;28;20056;-77
2022/06/27 03:40:17;;;;;;;12.65;8.40;;;16.90;99.90;;;;;;5053469;28;20036;-77
2022/06/27 03:42:43;;;;;;;13.65;7.90;;;16.90;99.90;;;;;;5053001;28;20043;-77
2022/06/27 03:45:09;;;;;;;12.52;7.22;;;16.90;99.90;;;;;;5070074;28;20119;-77
2022/06/27 03:47:52;;;;;;;10.38;7.15;;;16.90;99.90;;;;;;5036316;28;20410;-77
2022/06/27 03:50:20;;;;;;;11.30;6.65;;;16.90;99.90;;;;;;5069918;28;20044;-77
2022/06/27 03:52:45;;;;;;;10.70;6.30;;;16.90;99.90;;;;;;5052844;28;20047;-78
2022/06/27 03:55:12;;;;;;;11.35;7.03;;;16.90;99.90;;;;;;5060371;28;20128;-77
2022/06/27 03:57:45;;;;;;;11.50;6.10;;;16.90;99.90;;;;;;5032833;28;20063;-78
2022/06/27 04:00:11;;;;;;;;;;;17.00;99.90;;;;;;5034760;28;20183;-77
2022/06/27 04:02:36;;;;;;;16.08;7.10;;;17.00;99.90;;;;;;5049626;28;20882;-78
2022/06/27 04:05:03;;;;;;;11.50;6.15;;;17.00;99.90;;;;;;5016599;28;20517;-77
2022/06/27 04:07:29;;;;;;;10.95;6.60;;;17.00;99.90;;;;;;5049230;28;20037;-78
2022/06/27 04:09:56;;;;;;;11.43;6.35;;;17.00;99.90;;;;;;5049000;28;20255;-77
2022/06/27 04:12:22;;;;;;;10.23;5.93;;;17.00;99.90;;;;;;5032356;28;20041;-77
2022/06/27 04:14:47;;;;;;;9.90;5.93;;;17.00;99.90;;;;;;5049267;28;20083;-77
2022/06/27 04:17:13;;;;;;;10.32;6.30;;;17.10;99.90;;;;;;4999839;28;20091;-77
2022/06/27 04:19:40;;;;;;;12.35;6.10;;;17.10;99.90;;;;;;5017222;28;20053;-77
2022/06/27 04:22:08;;;;;;;9.70;6.03;;;17.00;99.90;;;;;;5016480;28;20372;-77
2022/06/27 04:24:35;;;;;;;9.90;5.60;;;17.00;99.90;;;;;;5030015;28;20505;-77
2022/06/27 04:27:01;;;;;;;10.45;6.13;;;17.00;99.90;;;;;;5022730;28;20125;-77
2022/06/27 04:29:28;;;;;;;10.32;5.82;;;17.10;99.90;;;;;;5049229;28;20048;-77
2022/06/27 04:31:54;;;;;;;9.55;5.53;;;17.10;99.90;;;;;;5032605;28;20049;-77
2022/06/27 04:34:20;;;;;;;11.25;5.85;;;17.10;99.90;;;;;;5015989;28;20367;-77
2022/06/27 04:36:46;;;;;;;12.52;5.85;;;17.10;99.90;;;;;;5032363;28;20041;-77
2022/06/27 04:39:15;;;;;;;10.82;5.65;;;17.10;99.90;;;;;;5032523;28;20047;-77
2022/06/27 04:41:43;;;;;;;10.02;5.60;;;17.10;99.90;;;;;;5031975;28;20094;-77
2022/06/27 04:44:11;;;;;;;9.25;5.13;;;17.10;99.90;;;;;;5018206;28;20224;-77
2022/06/27 04:46:38;;;;;;;9.60;4.28;;;17.10;99.90;;;;;;5016006;28;20040;-77
2022/06/27 04:49:05;;;;;;;8.98;4.28;;;17.10;99.90;;;;;;5044878;28;20511;-77
2022/06/27 04:51:31;;;;;;;8.40;4.07;;;17.10;99.90;;;;;;5032203;28;20044;-77
2022/06/27 04:53:58;;;;;;;8.15;4.22;;;17.10;99.90;;;;;;5019711;28;20101;-77
2022/06/27 04:56:24;;;;;;;8.73;4.20;;;17.20;99.90;;;;;;5052238;28;20052;-77
2022/06/27 04:58:49;;;;;;;8.38;4.30;;;17.10;99.90;;;;;;5068658;28;20041;-77
2022/06/27 05:01:15;;;;;;;8.35;4.50;;;17.20;99.90;;;;;;5051951;28;20043;-77
2022/06/27 05:03:41;;;;;;;8.55;4.20;;;17.20;99.90;;;;;;5052042;28;20513;-77
2022/06/27 05:06:07;;;;;;;8.70;4.20;;;17.20;99.90;;;;;;5068031;28;20048;-76
2022/06/27 05:08:33;;;;;;;7.85;3.78;;;17.20;99.90;;;;;;5052267;28;20142;-76
2022/06/27 05:10:59;;;;;;;7.80;3.78;;;17.20;99.90;;;;;;5051490;28;20414;-77
2022/06/27 05:13:24;;;;;;;8.18;3.90;;;17.20;99.90;;;;;;5068168;28;20058;-77
2022/06/27 05:15:51;;;;;;;7.63;3.33;;;17.20;99.90;;;;;;5067926;28;20048;-76
2022/06/27 05:18:16;;;;;;;7.03;3.17;;;17.20;99.90;;;;;;5055023;28;20120;-77
2022/06/27 05:20:43;;;;;;;7.20;3.17;;;17.20;99.90;;;;;;4998574;28;20123;-77
2022/06/27 05:23:09;;;;;;;8.43;3.28;;;17.30;99.90;;;;;;5015732;28;20402;-77
2022/06/27 05:25:35;;;;;;;7.28;2.80;;;17.30;99.90;;;;;;5032220;28;20095;-77
2022/06/27 05:28:03;;;;;;;7.03;3.17;;;17.30;99.90;;;;;;5056768;28;20041;-77
2022/06/27 05:30:30;;;;;;;7.05;2.65;;;17.30;99.90;;;;;;5015911;28;20111;-77
2022/06/27 05:32:56;;;;;;;6.63;2.85;;;17.30;99.90;;;;;;5014906;28;20120;-77
2022/06/27 05:35:22;;;;;;;5.93;2.35;;;17.30;99.90;;;;;;5031184;28;20045;-77
2022/06/27 05:37:49;;;;;;;7.00;2.78;;;17.20;99.90;;;;;;5014702;28;20098;-77
2022/06/27 05:40:16;;;;;;;7.68;2.65;;;17.30;99.90;;;;;;5034557;28;20109;-78
2022/06/27 05:42:42;;;;;;;7.90;2.80;;;17.30;99.90;;;;;;5041459;28;20048;-78
2022/06/27 05:45:09;;;;;;;6.53;2.60;;;17.30;99.90;;;;;;5031675;28;20049;-77
2022/06/27 05:47:35;;;;;;;6.43;2.22;;;17.40;99.90;;;;;;4998857;28;20506;-78
2022/06/27 05:50:04;;;;;;;6.75;2.55;;;17.40;99.90;;;;;;5048220;28;20068;-77
2022/06/27 05:52:30;;;;;;;7.32;3.00;;;17.50;99.90;;;;;;5030766;28;20067;-77
2022/06/27 05:54:56;;;;;;;6.90;2.75;;;17.50;99.90;;;;;;5043140;28;20044;-77
2022/06/27 05:57:24;;;;;;;7.25;2.65;;;17.60;99.90;;;;;;5051001;28;20094;-77
2022/06/27 05:59:53;;;;;;;5.70;2.40;;;17.70;99.90;;;;;;5035432;28;20095;-77
2022/06/27 06:02:21;;;;;;;6.93;2.67;;;17.70;99.90;;;;;;5066954;28;20044;-77
2022/06/27 06:04:47;;;;;;;7.53;2.50;;;17.70;99.90;;;;;;5067931;28;20058;-78
2022/06/27 06:07:14;;;;;;;6.80;2.78;;;17.80;99.90;;;;;;5031212;28;20060;-77
2022/06/27 06:09:41;;;;;;;7.22;2.92;;;17.80;99.90;;;;;;5047613;28;20041;-77
2022/06/27 06:12:09;;;;;;;6.57;2.78;;;17.80;99.90;;;;;;5047116;28;20045;-78
2022/06/27 06:14:36;;;;;;;7.28;2.63;;;17.90;99.90;;;;;;5014678;28;20045;-78
2022/06/27 06:17:03;;;;;;;5.65;2.45;;;17.90;99.90;;;;;;5030806;28;20379;-78
2022/06/27 06:19:29;;;;;;;7.88;2.80;;;17.90;99.90;;;;;;5047784;28;20049;-77
2022/06/27 06:21:55;;;;;;;6.47;2.80;;;17.90;99.90;;;;;;5013948;28;20502;-78
2022/06/27 06:24:21;;;;;;;5.65;2.55;;;17.90;99.90;;;;;;5047543;28;20045;-78
2022/06/27 06:26:47;;;;;;;6.28;2.50;;;17.80;99.90;;;;;;5051652;28;20182;-78
2022/06/27 06:29:14;;;;;;;6.75;2.75;;;17.80;99.90;;;;;;5067747;28;20040;-78
2022/06/27 06:31:43;;;;;;;7.05;2.90;;;17.90;99.90;;;;;;5033753;28;20044;-77
2022/06/27 06:34:10;;;;;;;6.40;2.60;;;17.80;99.90;;;;;;5050651;28;20041;-78
2022/06/27 06:36:38;;;;;;;7.00;2.90;;;17.90;99.90;;;;;;5050194;28;20062;-78
2022/06/27 06:39:06;;;;;;;6.20;2.78;;;17.90;99.90;;;;;;5034105;28;20147;-78
2022/06/27 06:41:32;;;;;;;6.50;2.70;;;17.90;99.90;;;;;;5033421;28;20051;-79
2022/06/27 06:44:02;;;;;;;6.90;2.85;;;18.00;99.90;;;;;;5033955;28;20071;-78
2022/06/27 06:46:28;;;;;;;6.80;2.90;;;17.90;99.90;;;;;;5033600;28;20045;-78
2022/06/27 06:49:05;;;;;;;7.25;2.85;;;17.90;99.90;;;;;;5052938;28;20047;-78
2022/06/27 06:51:36;;;;;;;7.72;3.00;;;18.00;99.90;;;;;;5014999;28;20080;-78
2022/06/27 06:54:07;;;;;;;7.00;3.00;;;18.00;99.90;;;;;;5035647;28;20040;-78
2022/06/27 06:56:34;;;;;;;7.32;2.97;;;18.00;99.90;;;;;;5049822;28;20055;-78
2022/06/27 06:59:01;;;;;;;8.13;3.03;;;18.00;99.90;;;;;;5067475;28;20112;-78
2022/06/27 07:01:28;;;;;;;7.75;3.00;;;18.00;99.90;;;;;;5049949;28;20040;-78
2022/06/27 07:03:55;;;;;;;6.97;3.08;;;17.90;99.90;;;;;;5066918;28;20040;-78
2022/06/27 07:06:25;;;;;;;6.72;3.00;;;17.90;99.90;;;;;;5049758;28;20399;-78
2022/06/27 07:08:53;;;;;;;7.20;2.92;;;18.00;99.90;;;;;;5050465;28;20036;-78
2022/06/27 07:11:23;;;;;;;7.20;2.90;;;18.00;99.90;;;;;;5049846;28;20217;-78
2022/06/27 07:13:51;;;;;;;7.30;2.80;;;18.00;99.90;;;;;;5050037;28;20051;-78
2022/06/27 07:16:18;;;;;;;6.75;2.83;;;18.00;99.90;;;;;;5049217;28;20132;-78
2022/06/27 07:18:47;;;;;;;8.02;2.70;;;18.00;99.90;;;;;;5030187;28;20562;-78
2022/06/27 07:21:18;;;;;;;7.40;2.95;;;18.00;99.90;;;;;;5030275;28;20036;-78
2022/06/27 07:23:46;;;;;;;6.22;2.72;;;18.10;99.90;;;;;;5014049;28;20120;-78
2022/06/27 07:26:12;;;;;;;7.38;3.40;;;18.10;99.90;;;;;;5031849;28;20077;-79
2022/06/27 07:28:40;;;;;;;7.45;3.15;;;18.10;99.90;;;;;;5024093;28;20044;-78
2022/06/27 07:31:11;;;;;;;7.25;3.17;;;18.10;99.90;;;;;;5049552;28;20033;-78
2022/06/27 07:33:41;;;;;;;7.30;3.20;;;18.10;99.90;;;;;;5034347;28;20142;-78
2022/06/27 07:36:11;;;;;;;8.35;3.58;;;18.00;99.90;;;;;;5049289;28;20040;-79
2022/06/27 07:38:38;;;;;;;7.05;3.10;;;18.00;99.90;;;;;;5049870;28;20047;-78
2022/06/27 07:41:10;;;;;;;7.20;3.30;;;18.00;99.90;;;;;;5049572;28;20467;-78
2022/06/27 07:43:37;;;;;;;7.18;2.95;;;18.00;99.90;;;;;;5050093;28;20135;-79
2022/06/27 07:46:03;;;;;;;6.70;2.97;;;18.10;99.90;;;;;;5052907;28;20143;-78
2022/06/27 07:48:30;;;;;;;7.78;3.05;;;18.10;99.90;;;;;;5070167;28;20348;-78
2022/06/27 07:50:59;;;;;;;7.15;3.33;;;18.10;99.90;;;;;;5053200;28;20479;-78
2022/06/27 07:53:25;;;;;;;6.70;2.88;;;18.10;99.90;;;;;;5036932;28;20037;-78
2022/06/27 07:55:56;;;;;;;6.95;3.00;;;18.20;99.90;;;;;;5032813;28;20075;-78
2022/06/27 07:58:33;;;;;;;7.38;3.20;;;18.20;99.90;;;;;;5033412;28;20210;-78
2022/06/27 08:01:01;;;;;;;7.18;3.05;;;18.20;99.90;;;;;;5049488;28;20037;-77
2022/06/27 08:03:46;;;;;;;7.07;3.17;;;18.20;99.90;;;;;;5016624;28;20067;-77
2022/06/27 08:06:21;;;;;;;7.13;3.20;;;18.20;99.90;;;;;;5039798;28;20076;-77
2022/06/27 08:08:52;;;;;;;7.72;3.58;;;18.20;99.90;;;;;;5033072;28;20071;-77
2022/06/27 08:11:21;;;;;;;9.50;3.30;;;18.20;99.90;;;;;;5049386;28;20107;-77
2022/06/27 08:13:49;;;;;;;7.30;3.33;;;18.20;99.90;;;;;;5049856;28;20136;-77
2022/06/27 08:16:17;;;;;;;8.48;3.65;;;18.20;99.90;;;;;;5032056;28;20102;-77
2022/06/27 08:18:44;;;;;;;8.90;3.60;;;18.20;99.90;;;;;;5016549;28;20062;-77
2022/06/27 08:21:10;;;;;;;7.72;3.28;;;18.20;99.90;;;;;;5032699;28;20033;-77
2022/06/27 08:23:38;;;;;;;7.90;3.50;;;18.20;99.90;;;;;;5032926;28;20045;-77
2022/06/27 08:26:08;;;;;;;7.00;3.35;;;18.30;99.90;;;;;;5006143;28;20511;-77
2022/06/27 08:28:39;;;;;;;7.40;3.30;;;18.30;99.90;;;;;;5039005;28;20041;-77
2022/06/27 08:31:07;;;;;;;7.95;3.92;;;18.30;99.90;;;;;;5022430;28;20055;-77
2022/06/27 08:33:34;;;;;;;7.82;3.40;;;18.30;99.90;;;;;;5052430;28;20044;-77
2022/06/27 08:36:02;;;;;;;8.45;4.00;;;18.30;99.90;;;;;;5035578;28;20580;-77
2022/06/27 08:38:28;;;;;;;8.05;3.63;;;18.30;99.90;;;;;;5052155;28;20045;-78
2022/06/27 08:40:55;;;;;;;7.68;3.67;;;18.30;99.90;;;;;;5035202;28;20051;-78
2022/06/27 08:43:22;;;;;;;7.50;3.85;;;18.30;99.90;;;;;;5051678;28;20037;-78
2022/06/27 08:45:50;;;;;;;7.82;4.00;;;18.30;99.90;;;;;;5033478;28;20235;-78
2022/06/27 08:48:16;;;;;;;9.00;3.80;;;18.30;99.90;;;;;;5059087;28;20048;-78
2022/06/27 08:50:43;;;;;;;9.20;4.15;;;18.40;99.90;;;;;;5050196;28;20052;-78
2022/06/27 08:53:12;;;;;;;7.60;3.67;;;18.40;99.90;;;;;;5031974;28;20117;-78
2022/06/27 08:55:42;;;;;;;8.07;3.60;;;18.40;99.90;;;;;;5065578;28;20649;-78
2022/06/27 08:58:12;;;;;;;7.70;4.03;;;18.50;99.90;;;;;;5052097;28;20356;-78
2022/06/27 09:00:40;;;;;;;7.65;3.50;;;18.50;99.90;;;;;;5052463;28;20037;-78
2022/06/27 09:03:10;;;;;;;7.90;3.72;;;18.40;99.90;;;;;;5035679;28;20128;-78
2022/06/27 09:05:36;;;;;;;7.50;3.60;;;18.50;99.90;;;;;;5051662;28;20105;-78
2022/06/27 09:08:06;;;;;;;8.90;3.65;;;18.60;99.90;;;;;;5034984;28;20041;-78
2022/06/27 09:10:43;;;;;;;7.03;3.20;;;18.60;99.90;;;;;;5051659;28;20116;-77
2022/06/27 09:13:11;;;;;;;7.07;2.90;;;18.70;99.90;;;;;;5068247;28;20048;-78
2022/06/27 09:15:52;;;;;;;7.43;3.58;;;18.80;99.90;;;;;;5067877;28;20118;-78
2022/06/27 09:18:23;;;;;;;7.60;3.20;;;18.80;99.90;;;;;;5038264;28;20045;-78
2022/06/27 09:20:59;;;;;;;8.65;3.42;;;18.80;99.90;;;;;;5031713;28;20045;-78
2022/06/27 09:23:54;;;;;;;8.75;3.30;;;18.90;99.90;;;;;;5048309;28;20041;-78
2022/06/27 09:26:25;;;;;;;7.20;3.13;;;18.80;99.90;;;;;;5023076;28;20032;-78
2022/06/27 09:28:53;;;;;;;8.23;2.80;;;18.80;99.90;;;;;;5049689;28;20045;-78
2022/06/27 09:31:25;;;;;;;8.13;3.00;;;18.80;99.90;;;;;;5047482;28;20045;-78
2022/06/27 09:34:00;;;;;;;6.30;2.65;;;18.90;99.90;;;;;;5047786;28;20037;-79
2022/06/27 09:36:32;;;;;;;6.78;2.92;;;18.80;99.90;;;;;;5030758;28;20144;-78
2022/06/27 09:38:59;;;;;;;7.90;2.78;;;18.80;99.90;;;;;;5044696;28;20047;-78
2022/06/27 09:41:29;;;;;;;7.00;2.67;;;18.80;99.90;;;;;;5047789;28;20578;-78
2022/06/27 09:44:06;;;;;;;7.03;2.83;;;18.70;99.90;;;;;;5054791;28;20076;-78
2022/06/27 09:46:38;;;;;;;7.15;2.78;;;18.70;99.90;;;;;;5050681;28;20043;-78
2022/06/27 09:49:07;;;;;;;6.80;2.90;;;18.60;99.90;;;;;;5050711;28;20178;-78
2022/06/27 09:51:37;;;;;;;7.95;3.50;;;18.60;99.90;;;;;;5066950;28;20115;-78
2022/06/27 09:54:16;;;;;;;8.23;3.55;;;18.50;99.90;;;;;;5067754;28;20107;-78
2022/06/27 09:56:45;;;;;;;7.53;3.10;;;18.50;99.90;;;;;;5035159;28;20044;-78
2022/06/27 09:59:12;;;;;;;6.95;2.97;;;18.60;99.90;;;;;;5067560;28;20040;-78
2022/06/27 10:01:42;;;;;;;7.30;2.70;;;18.60;99.90;;;;;;5033668;28;20033;-78
2022/06/27 10:04:09;;;;;;;7.05;2.80;;;18.70;99.90;;;;;;5067381;28;20040;-79
2022/06/27 10:06:37;;;;;;;6.85;2.67;;;18.70;99.90;;;;;;5051609;28;20115;-78
2022/06/27 10:09:05;;;;;;;8.20;3.10;;;18.80;99.90;;;;;;5047334;28;20126;-78
2022/06/27 10:11:31;;;;;;;8.43;3.45;;;19.00;99.90;;;;;;5046664;28;20079;-78
2022/06/27 10:14:18;;;;;;;8.00;3.42;;;19.00;99.90;;;;;;4997966;28;20130;-78
2022/06/27 10:16:58;;;;;;;8.43;3.35;;;19.10;99.90;;;;;;5030024;28;20052;-78
2022/06/27 10:19:29;;;;;;;7.15;3.08;;;19.10;99.90;;;;;;5047259;28;20048;-77
2022/06/27 10:21:56;;;;;;;7.15;3.08;;;19.10;99.90;;;;;;5046796;28;20511;-77
2022/06/27 10:24:23;;;;;;;7.70;3.00;;;19.20;99.90;;;;;;5047061;28;20071;-78
2022/06/27 10:26:51;;;;;;;7.88;3.15;;;19.30;99.90;;;;;;5065882;28;20048;-78
2022/06/27 10:29:46;;;;;;;6.80;2.88;;;19.30;99.90;;;;;;5050428;28;20487;-77
2022/06/27 10:32:39;;;;;;;6.90;2.92;;;19.40;99.90;;;;;;5049777;28;20621;-77
2022/06/27 10:35:05;;;;;;;8.23;3.20;;;19.50;99.90;;;;;;5067660;28;20325;-77
2022/06/27 10:37:35;;;;;;;7.95;3.42;;;19.60;99.90;;;;;;5049799;28;20560;-78
2022/06/27 10:40:19;;;;;;;7.95;3.45;;;19.60;99.90;;;;;;5066931;28;20441;-78
2022/06/27 10:42:55;;;;;;;8.45;3.80;;;19.60;99.90;;;;;;5066514;28;20036;-78
2022/06/27 10:45:21;;;;;;;7.88;3.63;;;19.60;99.90;;;;;;5042314;28;20033;-77
2022/06/27 10:47:47;;;;;;;8.05;3.72;;;19.70;99.90;;;;;;5035989;28;20489;-78
2022/06/27 10:50:14;;;;;;;7.72;3.40;;;19.80;99.90;;;;;;5030499;28;20495;-77
2022/06/27 10:52:40;;;;;;;7.57;3.25;;;19.90;99.90;;;;;;5013737;28;20068;-77
2022/06/27 10:55:31;;;;;;;7.70;3.40;;;20.00;99.90;;;;;;5020815;28;20051;-77
2022/06/27 10:57:58;;;;;;;8.30;3.60;;;20.10;99.90;;;;;;5029936;28;20049;-77
2022/06/27 11:00:34;;;;;;;7.82;3.83;;;20.20;99.90;;;;;;5030170;28;20052;-78
2022/06/27 11:03:01;;;;;;;8.48;3.90;;;20.30;99.90;;;;;;5029698;28;20106;-77
2022/06/27 11:05:29;;;;;;;9.18;3.67;;;20.40;99.90;;;;;;5030237;28;20044;-77
2022/06/27 11:07:55;;;;;;;8.07;3.33;;;20.60;99.90;;;;;;5013783;28;20249;-77
2022/06/27 11:10:21;;;;;;;7.90;3.65;;;20.70;99.90;;;;;;5013624;28;20115;-78
2022/06/27 11:12:47;;;;;;;7.72;3.42;;;20.80;99.90;;;;;;5013611;28;20040;-78
2022/06/27 11:15:13;;;;;;;8.40;3.75;;;20.80;99.90;;;;;;5013462;28;20162;-78
2022/06/27 11:17:39;;;;;;;8.43;3.58;;;20.90;99.90;;;;;;5037327;28;20100;-77
2022/06/27 11:20:13;;;;;;;7.82;3.15;;;20.90;99.90;;;;;;5050705;28;20439;-79
2022/06/27 11:22:40;;;;;;;9.88;3.13;;;21.00;99.90;;;;;;5033123;28;20415;-78
2022/06/27 11:25:06;;;;;;;8.55;3.30;;;20.90;99.90;;;;;;5033434;28;20048;-79
2022/06/27 11:27:52;;;;;;;6.78;3.00;;;21.00;99.90;;;;;;5035615;28;20045;-79
2022/06/27 11:33:22;;;;;;;7.55;3.50;;;21.10;99.90;;;;;;5056997;28;20064;-79
2022/06/27 11:35:48;;;;;;;7.63;3.72;;;21.10;99.90;;;;;;5068940;28;20052;-78
2022/06/27 11:38:29;;;;;;;7.68;3.47;;;21.10;99.90;;;;;;5040381;28;20533;-78
2022/06/27 11:41:00;;;;;;;8.63;3.40;;;21.00;99.90;;;;;;5053331;28;20422;-78
2022/06/27 11:43:44;;;;;;;8.85;3.65;;;20.90;99.90;;;;;;5070001;28;20141;-78
2022/06/27 11:46:46;;;;;;;7.82;3.50;;;20.80;99.90;;;;;;5053064;28;20048;-78
2022/06/27 11:49:18;;;;;;;8.32;3.30;;;20.70;99.90;;;;;;4977916;28;20042;-78
2022/06/27 11:51:49;;;;;;;8.48;3.50;;;20.60;99.90;;;;;;5043290;28;20124;-79
2022/06/27 11:54:18;;;;;;;7.85;3.45;;;20.60;99.90;;;;;;5067218;28;20047;-79
2022/06/27 11:56:45;;;;;;;7.93;3.72;;;20.50;99.90;;;;;;5049249;28;20126;-79
2022/06/27 11:59:13;;;;;;;9.15;3.60;;;20.40;99.90;;;;;;5032839;28;20503;-79
2022/06/27 12:02:01;;;;;;;7.97;3.67;;;20.30;99.90;;;;;;5049397;28;20068;-78
2022/06/27 12:04:33;;;;;;;7.63;3.10;;;20.30;99.90;;;;;;5032835;28;20125;-79
2022/06/27 12:07:07;;;;;;;8.18;3.50;;;20.30;99.90;;;;;;5038093;28;20082;-79
2022/06/27 12:09:47;;;;;;;8.18;3.78;;;20.30;99.90;;;;;;5049405;28;20052;-79
2022/06/27 12:12:18;;;;;;;8.15;3.45;;;20.30;99.90;;;;;;5048902;28;20116;-78
2022/06/27 12:14:50;;;;;;;8.25;4.13;;;20.20;99.90;;;;;;5032899;28;20183;-78
2022/06/27 12:17:17;;;;;;;8.15;3.55;;;20.20;99.90;;;;;;5031912;28;20081;-78
2022/06/27 12:19:43;;;;;;;7.47;3.47;;;20.20;99.90;;;;;;5049498;28;20045;-78
2022/06/27 12:22:12;;;;;;;8.30;3.55;;;20.20;99.90;;;;;;5015779;28;20037;-78
2022/06/27 12:24:38;;;;;;;8.55;3.63;;;20.20;99.90;;;;;;5016320;28;20040;-79
2022/06/27 12:27:05;;;;;;;8.10;3.60;;;20.20;99.90;;;;;;5032034;28;20602;-78
2022/06/27 12:29:31;;;;;;;8.90;3.83;;;20.20;99.90;;;;;;5031788;28;20041;-78
2022/06/27 12:31:57;;;;;;;8.15;3.70;;;20.20;99.90;;;;;;5032074;28;20037;-78
2022/06/27 12:34:23;;;;;;;8.02;3.85;;;20.10;99.90;;;;;;5049298;28;20098;-78
2022/06/27 12:36:49;;;;;;;8.38;3.72;;;20.20;99.90;;;;;;5015830;28;20491;-78
2022/06/27 12:39:14;;;;;;;8.38;4.00;;;20.20;99.90;;;;;;5015964;28;20048;-78
2022/06/27 12:41:41;;;;;;;9.07;3.50;;;20.20;99.90;;;;;;5015829;28;20037;-78
2022/06/27 12:44:08;;;;;;;8.20;3.60;;;20.30;99.90;;;;;;5034401;28;20357;-78
2022/06/27 12:46:34;;;;;;;8.20;4.05;;;20.40;99.90;;;;;;5048781;28;20476;-77
2022/06/27 12:49:00;;;;;;;8.07;3.88;;;20.40;99.90;;;;;;5028810;28;20598;-77
2022/06/27 12:51:27;;;;;;;8.60;4.25;;;20.40;99.90;;;;;;5031942;28;20188;-77
2022/06/27 12:53:54;;;;;;;8.32;4.10;;;20.40;99.90;;;;;;5052088;28;20356;-77